createdAt,value
2018-09-04T00:00:04.318Z,46299.62
2018-09-04T00:02:08.987Z,46308.33
2018-09-04T00:04:13.677Z,46346.07
2018-09-04T00:06:18.365Z,46310.27
2018-09-04T00:08:23.044Z,46312.20
2018-09-04T00:10:27.974Z,46319.94
2018-09-04T00:12:32.666Z,46315.11
2018-09-04T00:14:37.421Z,46325.75
2018-09-04T00:16:42.195Z,46313.17
2018-09-04T00:18:46.906Z,46317.04
2018-09-04T00:20:51.839Z,46314.14
2018-09-04T00:22:56.457Z,46301.55
2018-09-04T00:25:02.369Z,46301.55
2018-09-04T00:27:07.060Z,46315.11
2018-09-04T00:29:11.767Z,46298.65
2018-09-04T00:31:22.520Z,46327.68
2018-09-04T00:33:27.172Z,46317.04
2018-09-04T00:35:31.835Z,46304.46
2018-09-04T00:37:36.479Z,46323.81
2018-09-04T00:39:41.166Z,46322.85
2018-09-04T00:41:45.860Z,46298.65
2018-09-04T00:43:50.492Z,46317.04
2018-09-04T00:45:55.177Z,46328.65
2018-09-04T00:47:59.876Z,46316.07
2018-09-04T00:50:04.665Z,46312.20
2018-09-04T00:52:09.406Z,46325.75
2018-09-04T00:54:14.067Z,46314.14
2018-09-04T00:56:18.783Z,46314.14
2018-09-04T00:58:23.454Z,46306.39
2018-09-04T01:00:28.642Z,46294.78
2018-09-04T01:02:33.309Z,46300.59
2018-09-04T01:04:38.101Z,46325.75
2018-09-04T01:06:42.777Z,46315.11
2018-09-04T01:08:48.126Z,46318.01
2018-09-04T01:10:52.889Z,46318.01
2018-09-04T01:12:57.653Z,46306.39
2018-09-04T01:15:02.508Z,46318.01
2018-09-04T01:17:07.649Z,46315.11
2018-09-04T01:19:12.454Z,46321.88
2018-09-04T01:21:17.167Z,46325.75
2018-09-04T01:23:21.846Z,46308.33
2018-09-04T01:25:26.586Z,46283.17
2018-09-04T01:27:31.301Z,46301.55
2018-09-04T01:29:35.932Z,46327.68
2018-09-04T01:31:40.685Z,46318.01
2018-09-04T01:33:45.330Z,46313.17
2018-09-04T01:35:50.025Z,46294.78
2018-09-04T01:37:54.698Z,46299.62
2018-09-04T01:39:59.406Z,46317.04
2018-09-04T01:42:04.103Z,46315.11
2018-09-04T01:44:08.850Z,46303.49
2018-09-04T01:46:13.722Z,46329.62
2018-09-04T01:48:18.484Z,46304.46
2018-09-04T01:50:23.325Z,46312.20
2018-09-04T01:52:28.031Z,46313.17
2018-09-04T01:54:32.815Z,46309.30
2018-09-04T01:56:37.446Z,46314.14
2018-09-04T01:58:42.217Z,46299.62
2018-09-04T02:00:46.925Z,46317.04
2018-09-04T02:02:51.759Z,46295.75
2018-09-04T02:04:56.423Z,46309.30
2018-09-04T02:07:01.124Z,46307.36
2018-09-04T02:09:07.038Z,46318.01
2018-09-04T02:11:11.881Z,46299.62
2018-09-04T02:13:16.706Z,46323.81
2018-09-04T02:15:21.471Z,46330.59
2018-09-04T02:17:26.288Z,46307.36
2018-09-04T02:19:31.002Z,46319.94
2018-09-04T02:21:35.724Z,46294.78
2018-09-04T02:23:40.493Z,46315.11
2018-09-04T02:25:45.195Z,46313.17
2018-09-04T02:27:49.848Z,46302.52
2018-09-04T02:29:54.545Z,46302.52
2018-09-04T02:31:59.205Z,46309.30
2018-09-04T02:34:03.917Z,46306.39
2018-09-04T02:36:08.581Z,46318.97
2018-09-04T02:38:13.342Z,46304.46
2018-09-04T02:40:18.035Z,46334.46
2018-09-04T02:42:22.701Z,46323.81
2018-09-04T02:44:27.542Z,46304.46
2018-09-04T02:46:32.407Z,46303.49
2018-09-04T02:48:37.116Z,46308.33
2018-09-04T02:50:41.835Z,46301.55
2018-09-04T02:52:46.617Z,46304.46
2018-09-04T02:54:51.336Z,46315.11
2018-09-04T02:56:56.023Z,46308.33
2018-09-04T02:59:00.777Z,46322.85
2018-09-04T03:01:05.612Z,46312.20
2018-09-04T03:03:10.242Z,46306.39
2018-09-04T03:05:17.499Z,46317.04
2018-09-04T03:07:22.147Z,46320.91
2018-09-04T03:09:26.822Z,46326.72
2018-09-04T03:11:31.506Z,46311.23
2018-09-04T03:13:36.257Z,46329.62
2018-09-04T03:15:40.854Z,46320.91
2018-09-04T03:17:45.578Z,46318.01
2018-09-04T03:19:50.282Z,46324.78
2018-09-04T03:21:54.940Z,46321.88
2018-09-04T03:23:59.637Z,46322.85
2018-09-04T03:26:04.376Z,46318.97
2018-09-04T03:28:09.033Z,46335.43
2018-09-04T03:30:13.762Z,46308.33
2018-09-04T03:32:19.264Z,46308.33
2018-09-04T03:34:23.919Z,46312.20
2018-09-04T03:36:28.675Z,46332.52
2018-09-04T03:38:33.326Z,46329.62
2018-09-04T03:40:38.006Z,46325.75
2018-09-04T03:42:42.976Z,46321.88
2018-09-04T03:44:47.669Z,46324.78
2018-09-04T03:46:52.364Z,46319.94
2018-09-04T03:48:57.424Z,46332.52
2018-09-04T03:51:02.168Z,46311.23
2018-09-04T03:53:07.011Z,46314.14
2018-09-04T03:55:11.769Z,46318.97
2018-09-04T03:57:16.442Z,46341.23
2018-09-04T03:59:21.437Z,46314.14
2018-09-04T04:01:26.166Z,46307.36
2018-09-04T04:03:30.832Z,46314.14
2018-09-04T04:05:35.623Z,46311.23
2018-09-04T04:07:40.555Z,46317.04
2018-09-04T04:09:45.773Z,46312.20
2018-09-04T04:11:50.556Z,46308.33
2018-09-04T04:13:56.065Z,46317.04
2018-09-04T04:16:00.801Z,46314.14
2018-09-04T04:18:06.878Z,46297.68
2018-09-04T04:20:12.405Z,46331.55
2018-09-04T04:22:17.110Z,46287.04
2018-09-04T04:24:21.827Z,46314.14
2018-09-04T04:26:26.511Z,46324.78
2018-09-04T04:28:31.171Z,46310.27
2018-09-04T04:30:35.783Z,46301.55
2018-09-04T04:32:41.459Z,46318.97
2018-09-04T04:34:46.158Z,46296.72
2018-09-04T04:36:50.822Z,46289.94
2018-09-04T04:38:55.602Z,46309.30
2018-09-04T04:41:00.516Z,46289.94
2018-09-04T04:43:05.459Z,46318.97
2018-09-04T04:45:10.337Z,46297.68
2018-09-04T04:47:15.192Z,46310.27
2018-09-04T04:49:20.166Z,46302.52
2018-09-04T04:51:25.842Z,46309.30
2018-09-04T04:53:30.531Z,46288.97
2018-09-04T04:55:35.413Z,46304.46
2018-09-04T04:57:40.333Z,46308.33
2018-09-04T04:59:45.130Z,46306.39
2018-09-04T05:01:50.325Z,46310.27
2018-09-04T05:03:55.494Z,46311.23
2018-09-04T05:06:00.557Z,46309.30
2018-09-04T05:08:06.111Z,46307.36
2018-09-04T05:10:10.970Z,46294.78
2018-09-04T05:12:15.687Z,46296.72
2018-09-04T05:14:20.603Z,46317.04
2018-09-04T05:16:25.653Z,46301.55
2018-09-04T05:18:31.926Z,46318.97
2018-09-04T05:20:36.797Z,46303.49
2018-09-04T05:22:41.729Z,46318.01
2018-09-04T05:24:47.832Z,46312.20
2018-09-04T05:26:52.625Z,46313.17
2018-09-04T05:28:57.940Z,46321.88
2018-09-04T05:31:02.754Z,46318.01
2018-09-04T05:33:12.631Z,46295.75
2018-09-04T05:35:17.564Z,46318.01
2018-09-04T05:37:22.273Z,46305.43
2018-09-04T05:39:26.990Z,46299.62
2018-09-04T05:41:31.828Z,46318.01
2018-09-04T05:43:48.665Z,46313.17
2018-09-04T05:45:53.560Z,46309.30
2018-09-04T05:48:00.344Z,46318.01
2018-09-04T05:50:07.040Z,46324.78
2018-09-04T05:52:11.775Z,46315.11
2018-09-04T05:54:16.619Z,46310.27
2018-09-04T05:56:21.692Z,46322.85
2018-09-04T05:58:26.617Z,46284.14
2018-09-04T06:00:37.306Z,46335.43
2018-09-04T06:02:42.295Z,46312.20
2018-09-04T06:04:47.107Z,46318.97
2018-09-04T06:06:52.078Z,46301.55
2018-09-04T06:08:57.442Z,46312.20
2018-09-04T06:11:02.313Z,46316.07
2018-09-04T06:13:07.418Z,46329.62
2018-09-04T06:15:12.334Z,46318.97
2018-09-04T06:17:17.504Z,46334.46
2018-09-04T06:19:23.553Z,46303.49
2018-09-04T06:21:28.474Z,46323.81
2018-09-04T06:23:33.955Z,46325.75
2018-09-04T06:25:38.893Z,46332.52
2018-09-04T06:27:43.824Z,46337.36
2018-09-04T06:29:48.637Z,46322.85
2018-09-04T06:31:53.523Z,46347.04
2018-09-04T06:33:58.684Z,46312.20
2018-09-04T06:36:03.483Z,46329.62
2018-09-04T06:38:08.848Z,46324.78
2018-09-04T06:40:13.694Z,46332.52
2018-09-04T06:42:18.515Z,46313.17
2018-09-04T06:44:23.408Z,46324.78
2018-09-04T06:46:28.235Z,46340.27
2018-09-04T06:48:33.087Z,46358.65
2018-09-04T06:50:37.961Z,46319.94
2018-09-04T06:52:42.768Z,46349.94
2018-09-04T06:54:47.959Z,46334.46
2018-09-04T06:56:52.757Z,46326.72
2018-09-04T06:58:57.550Z,46331.55
2018-09-04T07:01:02.363Z,46338.33
2018-09-04T07:03:07.317Z,46337.36
2018-09-04T07:05:12.783Z,46331.55
2018-09-04T07:07:17.512Z,46340.27
2018-09-04T07:09:22.367Z,46344.14
2018-09-04T07:11:27.131Z,46323.81
2018-09-04T07:13:31.880Z,46327.68
2018-09-04T07:15:36.594Z,46336.39
2018-09-04T07:17:41.370Z,46329.62
2018-09-04T07:19:46.272Z,46339.30
2018-09-04T07:21:50.994Z,46352.85
2018-09-04T07:23:55.717Z,46348.98
2018-09-04T07:26:00.422Z,46336.39
2018-09-04T07:28:05.288Z,46350.91
2018-09-04T07:30:10.107Z,46362.52
2018-09-04T07:32:14.844Z,46355.75
2018-09-04T07:34:19.587Z,46362.52
2018-09-04T07:36:24.421Z,46358.65
2018-09-04T07:38:29.312Z,46350.91
2018-09-04T07:40:34.196Z,46357.69
2018-09-04T07:42:39.687Z,46344.14
2018-09-04T07:44:44.446Z,46351.88
2018-09-04T07:46:49.242Z,46342.20
2018-09-04T07:48:54.064Z,46364.46
2018-09-04T07:50:58.812Z,46345.11
2018-09-04T07:53:03.577Z,46371.23
2018-09-04T07:55:08.649Z,46361.56
2018-09-04T07:57:13.510Z,46374.14
2018-09-04T07:59:18.273Z,46350.91
2018-09-04T08:01:23.045Z,46350.91
2018-09-04T08:03:28.368Z,46372.20
2018-09-04T08:05:33.267Z,46376.07
2018-09-04T08:07:38.014Z,46355.75
2018-09-04T08:09:42.818Z,46376.07
2018-09-04T08:11:47.589Z,46349.94
2018-09-04T08:13:52.553Z,46376.07
2018-09-04T08:15:57.275Z,46378.98
2018-09-04T08:18:02.251Z,46363.49
2018-09-04T08:20:07.168Z,46375.11
2018-09-04T08:22:11.900Z,46383.82
2018-09-04T08:24:16.624Z,46378.01
2018-09-04T08:26:21.370Z,46376.07
2018-09-04T08:28:26.356Z,46378.98
2018-09-04T08:30:31.066Z,46378.98
2018-09-04T08:32:35.964Z,46381.88
2018-09-04T08:34:40.773Z,46389.62
2018-09-04T08:36:45.597Z,46362.52
2018-09-04T08:38:51.636Z,46390.59
2018-09-04T08:40:56.422Z,46391.56
2018-09-04T08:43:01.591Z,46390.59
2018-09-04T08:45:06.421Z,46393.49
2018-09-04T08:47:11.234Z,46393.49
2018-09-04T08:49:16.039Z,46380.91
2018-09-04T08:51:20.775Z,46395.43
2018-09-04T08:53:25.630Z,46383.82
2018-09-04T08:55:30.376Z,46391.56
2018-09-04T08:57:35.238Z,46384.79
2018-09-04T08:59:40.322Z,46397.36
2018-09-04T09:01:45.596Z,46405.11
2018-09-04T09:03:50.570Z,46387.69
2018-09-04T09:05:55.341Z,46404.14
2018-09-04T09:10:47.017Z,46410.91
2018-09-04T09:12:53.695Z,46403.17
2018-09-04T09:14:59.523Z,46401.24
2018-09-04T09:19:21.321Z,46404.14
2018-09-04T09:21:26.188Z,46400.27
2018-09-04T09:23:30.913Z,46384.79
2018-09-04T09:25:36.401Z,46422.53
2018-09-04T09:27:41.866Z,46409.95
2018-09-04T09:29:46.582Z,46431.24
2018-09-04T09:31:51.462Z,46412.85
2018-09-04T09:33:56.295Z,46417.69
2018-09-04T09:36:01.718Z,46402.21
2018-09-04T09:38:06.523Z,46429.30
2018-09-04T09:40:11.830Z,46405.11
2018-09-04T09:42:16.909Z,46412.85
2018-09-04T09:44:21.991Z,46411.88
2018-09-04T09:46:26.888Z,46405.11
2018-09-04T09:48:36.864Z,46419.62
2018-09-04T09:50:42.734Z,46426.40
2018-09-04T09:52:47.817Z,46435.11
2018-09-04T09:54:53.070Z,46427.37
2018-09-04T09:56:57.942Z,46428.34
2018-09-04T09:59:03.774Z,46409.95
2018-09-04T10:01:14.071Z,46419.62
2018-09-04T10:03:23.877Z,46439.95
2018-09-04T10:05:28.923Z,46424.46
2018-09-04T10:07:33.968Z,46417.69
2018-09-04T10:09:38.802Z,46436.08
2018-09-04T10:11:43.990Z,46417.69
2018-09-04T10:13:49.443Z,46417.69
2018-09-04T10:15:54.233Z,46424.46
2018-09-04T10:18:00.046Z,46415.75
2018-09-04T10:20:05.065Z,46426.40
2018-09-04T10:22:10.141Z,46417.69
2018-09-04T10:24:15.284Z,46428.34
2018-09-04T10:26:20.499Z,46432.21
2018-09-04T10:28:25.637Z,46442.85
2018-09-04T10:30:30.819Z,46413.82
2018-09-04T10:32:36.107Z,46445.75
2018-09-04T10:34:41.223Z,46434.14
2018-09-04T10:36:47.058Z,46426.40
2018-09-04T10:38:55.872Z,46430.27
2018-09-04T10:41:02.658Z,46427.37
2018-09-04T10:43:07.725Z,46438.98
2018-09-04T10:45:17.485Z,46432.21
2018-09-04T10:47:22.998Z,46436.08
2018-09-04T10:49:27.746Z,46439.95
2018-09-04T10:51:32.802Z,46466.08
2018-09-04T10:53:38.576Z,46432.21
2018-09-04T10:55:43.479Z,46450.59
2018-09-04T10:57:49.026Z,46433.18
2018-09-04T10:59:54.025Z,46437.05
2018-09-04T11:01:59.124Z,46432.21
2018-09-04T11:04:04.434Z,46423.50
2018-09-04T11:06:09.346Z,46446.72
2018-09-04T11:08:14.471Z,46440.92
2018-09-04T11:10:19.620Z,46451.56
2018-09-04T11:12:24.692Z,46452.53
2018-09-04T11:14:29.804Z,46442.85
2018-09-04T11:16:35.033Z,46449.62
2018-09-04T11:18:40.167Z,46447.69
2018-09-04T11:20:45.253Z,46441.88
2018-09-04T11:22:50.316Z,46462.21
2018-09-04T11:24:55.544Z,46454.46
2018-09-04T11:27:00.612Z,46446.72
2018-09-04T11:29:09.184Z,46452.53
2018-09-04T11:31:14.289Z,46444.79
2018-09-04T11:33:19.203Z,46433.18
2018-09-04T11:35:24.222Z,46439.95
2018-09-04T11:37:29.066Z,46442.85
2018-09-04T11:39:33.884Z,46442.85
2018-09-04T11:41:39.282Z,46457.37
2018-09-04T11:43:44.014Z,46435.11
2018-09-04T11:45:48.829Z,46455.43
2018-09-04T11:47:53.768Z,46445.75
2018-09-04T11:49:58.537Z,46450.59
2018-09-04T11:52:03.285Z,46440.92
2018-09-04T11:54:09.086Z,46443.82
2018-09-04T11:56:17.839Z,46452.53
2018-09-04T11:58:22.532Z,46438.98
2018-09-04T12:00:36.527Z,46448.66
2018-09-04T12:02:41.412Z,46435.11
2018-09-04T12:04:46.297Z,46461.24
2018-09-04T12:06:51.136Z,46457.37
2018-09-04T12:08:55.940Z,46455.43
2018-09-04T12:11:00.752Z,46453.50
2018-09-04T12:13:05.913Z,46457.37
2018-09-04T12:15:10.742Z,46478.66
2018-09-04T12:17:16.250Z,46464.14
2018-09-04T12:19:21.486Z,46463.18
2018-09-04T12:21:26.628Z,46443.82
2018-09-04T12:23:31.885Z,46463.18
2018-09-04T12:25:37.530Z,46455.43
2018-09-04T12:27:42.693Z,46460.27
2018-09-04T12:29:47.746Z,46459.30
2018-09-04T12:31:54.267Z,46456.40
2018-09-04T12:33:59.676Z,46466.08
2018-09-04T12:36:05.045Z,46459.30
2018-09-04T12:38:12.373Z,46463.18
2018-09-04T12:40:17.518Z,46480.60
2018-09-04T12:42:23.645Z,46469.95
2018-09-04T12:44:28.541Z,46449.62
2018-09-04T12:46:33.862Z,46450.59
2018-09-04T12:48:39.479Z,46465.11
2018-09-04T12:50:44.910Z,46452.53
2018-09-04T12:52:50.811Z,46472.86
2018-09-04T12:54:55.786Z,46464.14
2018-09-04T12:57:00.974Z,46467.05
2018-09-04T12:59:07.228Z,46447.69
2018-09-04T13:01:12.826Z,46475.76
2018-09-04T13:03:25.633Z,46463.18
2018-09-04T13:05:30.729Z,46463.18
2018-09-04T13:07:35.820Z,46480.60
2018-09-04T13:09:40.784Z,46474.79
2018-09-04T13:11:45.858Z,46483.50
2018-09-04T13:13:50.915Z,46491.24
2018-09-04T13:15:57.865Z,46488.34
2018-09-04T13:18:02.874Z,46482.53
2018-09-04T13:20:08.111Z,46482.53
2018-09-04T13:22:13.072Z,46481.56
2018-09-04T13:24:18.144Z,46488.34
2018-09-04T13:26:23.121Z,46484.47
2018-09-04T13:28:28.623Z,46481.56
2018-09-04T13:30:33.663Z,46492.21
2018-09-04T13:32:38.914Z,46476.73
2018-09-04T13:34:43.825Z,46474.79
2018-09-04T13:36:48.987Z,46478.66
2018-09-04T13:38:54.828Z,46478.66
2018-09-04T13:41:05.393Z,46483.50
2018-09-04T13:43:10.601Z,46481.56
2018-09-04T13:45:16.512Z,46470.92
2018-09-04T13:47:24.163Z,46472.86
2018-09-04T13:49:29.538Z,46485.44
2018-09-04T13:51:34.714Z,46487.37
2018-09-04T13:53:39.873Z,46467.05
2018-09-04T13:55:45.064Z,46493.18
2018-09-04T13:57:50.718Z,46471.89
2018-09-04T13:59:56.131Z,46464.14
2018-09-04T14:02:01.352Z,46490.27
2018-09-04T14:04:06.237Z,46480.60
2018-09-04T14:06:11.176Z,46482.53
2018-09-04T14:08:16.201Z,46483.50
2018-09-04T14:10:21.304Z,46481.56
2018-09-04T14:12:27.008Z,46478.66
2018-09-04T14:14:32.029Z,46476.73
2018-09-04T14:16:43.149Z,46476.73
2018-09-04T14:18:42.705Z,46470.92
2018-09-04T14:20:47.731Z,46470.92
2018-09-04T14:22:52.737Z,46468.02
2018-09-04T14:24:57.933Z,46477.69
2018-09-04T14:27:02.987Z,46468.02
2018-09-04T14:29:08.471Z,46477.69
2018-09-04T14:31:13.668Z,46479.63
2018-09-04T14:33:18.842Z,46460.27
2018-09-04T14:35:23.725Z,46461.24
2018-09-04T14:37:28.869Z,46471.89
2018-09-04T14:39:33.753Z,46474.79
2018-09-04T14:41:38.746Z,46470.92
2018-09-04T14:43:43.635Z,46483.50
2018-09-04T14:45:49.710Z,46476.73
2018-09-04T14:47:55.475Z,46489.31
2018-09-04T14:50:00.558Z,46484.47
2018-09-04T14:52:05.863Z,46467.05
2018-09-04T14:54:11.934Z,46489.31
2018-09-04T14:56:17.575Z,46494.14
2018-09-04T14:58:22.610Z,46493.18
2018-09-04T15:00:27.821Z,46475.76
2018-09-04T15:02:32.911Z,46495.11
2018-09-04T15:04:38.294Z,46493.18
2018-09-04T15:06:43.347Z,46501.89
2018-09-04T15:08:48.429Z,46493.18
2018-09-04T15:10:53.692Z,46485.44
2018-09-04T15:12:58.605Z,46487.37
2018-09-04T15:15:03.976Z,46476.73
2018-09-04T15:17:08.885Z,46458.34
2018-09-04T15:19:13.858Z,46461.24
2018-09-04T15:21:18.734Z,46451.56
2018-09-04T15:23:23.763Z,46446.72
2018-09-04T15:25:28.765Z,46424.46
2018-09-04T15:27:34.577Z,46422.53
2018-09-04T15:29:39.450Z,46382.85
2018-09-04T15:31:44.802Z,46414.79
2018-09-04T15:33:49.845Z,46414.79
2018-09-04T15:35:55.192Z,46428.34
2018-09-04T15:38:00.143Z,46419.62
2018-09-04T15:40:05.254Z,46396.40
2018-09-04T15:42:10.367Z,46402.21
2018-09-04T15:44:16.378Z,46412.85
2018-09-04T15:46:22.906Z,46400.27
2018-09-04T15:48:27.894Z,46408.01
2018-09-04T15:50:32.734Z,46388.66
2018-09-04T15:52:39.022Z,46395.43
2018-09-04T15:54:43.910Z,46389.62
2018-09-04T15:56:48.854Z,46395.43
2018-09-04T15:58:53.703Z,46405.11
2018-09-04T16:00:58.900Z,46401.24
2018-09-04T16:03:04.663Z,46381.88
2018-09-04T16:05:09.715Z,46392.53
2018-09-04T16:07:14.720Z,46369.30
2018-09-04T16:09:20.107Z,46379.95
2018-09-04T16:11:25.265Z,46370.27
2018-09-04T16:13:30.848Z,46377.04
2018-09-04T16:15:35.804Z,46375.11
2018-09-04T16:17:41.256Z,46384.79
2018-09-04T16:19:47.816Z,46369.30
2018-09-04T16:21:53.092Z,46385.75
2018-09-04T16:23:58.823Z,46383.82
2018-09-04T16:26:03.953Z,46370.27
2018-09-04T16:28:09.225Z,46378.98
2018-09-04T16:30:14.586Z,46382.85
2018-09-04T16:32:20.088Z,46350.91
2018-09-04T16:34:25.353Z,46362.52
2018-09-04T16:36:30.771Z,46369.30
2018-09-04T16:38:36.234Z,46371.23
2018-09-04T16:40:41.382Z,46357.69
2018-09-04T16:42:46.468Z,46384.79
2018-09-04T16:44:52.179Z,46376.07
2018-09-04T16:46:57.956Z,46393.49
2018-09-04T16:49:03.322Z,46379.95
2018-09-04T16:51:10.256Z,46379.95
2018-09-04T16:53:15.308Z,46400.27
2018-09-04T16:55:20.546Z,46376.07
2018-09-04T16:57:26.183Z,46380.91
2018-09-04T16:59:32.093Z,46387.69
2018-09-04T17:01:37.543Z,46370.27
2018-09-04T17:03:43.174Z,46380.91
2018-09-04T17:05:48.283Z,46377.04
2018-09-04T17:07:53.850Z,46376.07
2018-09-04T17:09:59.096Z,46368.33
2018-09-04T17:12:04.517Z,46359.62
2018-09-04T17:14:10.405Z,46375.11
2018-09-04T17:16:15.868Z,46364.46
2018-09-04T17:18:22.120Z,46393.49
2018-09-04T17:20:27.281Z,46391.56
2018-09-04T17:22:33.944Z,46369.30
2018-09-04T17:24:38.972Z,46375.11
2018-09-04T17:26:47.785Z,46292.84
2018-09-04T17:28:52.819Z,46362.52
2018-09-04T17:30:57.757Z,46386.72
2018-09-04T17:33:04.140Z,46375.11
2018-09-04T17:35:09.056Z,46378.01
2018-09-04T17:37:14.285Z,46369.30
2018-09-04T17:39:19.418Z,46400.27
2018-09-04T17:41:24.639Z,46376.07
2018-09-04T17:43:30.968Z,46391.56
2018-09-04T17:45:36.377Z,46391.56
2018-09-04T17:47:41.837Z,46355.75
2018-09-04T17:49:47.061Z,46367.36
2018-09-04T17:51:52.553Z,46357.69
2018-09-04T17:53:57.647Z,46359.62
2018-09-04T17:56:03.291Z,46375.11
2018-09-04T17:58:08.312Z,46348.01
2018-09-04T18:00:14.368Z,46366.39
2018-09-04T18:02:20.356Z,46354.79
2018-09-04T18:04:25.470Z,46368.33
2018-09-04T18:06:30.827Z,46357.69
2018-09-04T18:08:35.949Z,46353.82
2018-09-04T18:10:41.272Z,46353.82
2018-09-04T18:12:47.421Z,46351.88
2018-09-04T18:14:52.586Z,46345.11
2018-09-04T18:16:58.017Z,46376.07
2018-09-04T18:19:03.489Z,46346.07
2018-09-04T18:21:08.714Z,46352.85
2018-09-04T18:23:15.160Z,46348.98
2018-09-04T18:25:20.676Z,46362.52
2018-09-04T18:27:26.313Z,46358.65
2018-09-04T18:29:34.896Z,46352.85
2018-09-04T18:31:41.637Z,46361.56
2018-09-04T18:33:47.718Z,46354.79
2018-09-04T18:35:52.789Z,46357.69
2018-09-04T18:37:57.854Z,46358.65
2018-09-04T18:40:04.195Z,46358.65
2018-09-04T18:44:56.233Z,46355.75
2018-09-04T18:47:01.483Z,46346.07
2018-09-04T18:49:07.780Z,46328.65
2018-09-04T18:51:20.402Z,46354.79
2018-09-04T18:53:31.814Z,46363.49
2018-09-04T18:55:37.399Z,46354.79
2018-09-04T18:57:43.516Z,46335.43
2018-09-04T18:59:50.398Z,46346.07
2018-09-04T19:01:57.362Z,46356.72
2018-09-04T19:04:06.545Z,46353.82
2018-09-04T19:06:18.103Z,46358.65
2018-09-04T19:08:28.140Z,46362.52
2018-09-04T19:10:40.622Z,46336.39
2018-09-04T19:12:51.437Z,46357.69
2018-09-04T19:14:58.802Z,46365.43
2018-09-04T19:17:10.476Z,46362.52
2018-09-04T19:19:22.140Z,46356.72
2018-09-04T19:21:34.282Z,46347.04
2018-09-04T19:23:45.919Z,46355.75
2018-09-04T19:25:57.205Z,46358.65
2018-09-04T19:28:09.619Z,46360.59
2018-09-04T19:30:19.668Z,46360.59
2018-09-04T19:32:31.141Z,46374.14
2018-09-04T19:34:40.993Z,46347.04
2018-09-04T19:36:49.715Z,46359.62
2018-09-04T19:38:59.515Z,46352.85
2018-09-04T19:41:09.454Z,46360.59
2018-09-04T19:43:21.017Z,46352.85
2018-09-04T19:45:31.529Z,46372.20
2018-09-04T19:47:44.218Z,46353.82
2018-09-04T19:49:55.323Z,46357.69
2018-09-04T19:52:05.268Z,46345.11
2018-09-04T19:54:15.004Z,46362.52
2018-09-04T19:56:23.917Z,46354.79
2018-09-04T19:58:31.954Z,46344.14
2018-09-04T20:00:41.284Z,46342.20
2018-09-04T20:02:49.888Z,46349.94
2018-09-04T20:04:59.434Z,46359.62
2018-09-04T20:07:14.639Z,46349.94
2018-09-04T20:09:23.750Z,46338.33
2018-09-04T20:11:29.803Z,46355.75
2018-09-04T20:13:42.457Z,46357.69
2018-09-04T20:15:48.406Z,46351.88
2018-09-04T20:17:56.456Z,46360.59
2018-09-04T20:20:03.673Z,46351.88
2018-09-04T20:22:13.010Z,46359.62
2018-09-04T20:24:21.645Z,46357.69
2018-09-04T20:26:27.370Z,46336.39
2018-09-04T20:28:34.068Z,46341.23
2018-09-04T20:30:41.969Z,46340.27
2018-09-04T20:32:49.957Z,46355.75
2018-09-04T20:41:18.085Z,46357.69
2018-09-04T20:43:23.850Z,46344.14
2018-09-04T20:45:29.805Z,46346.07
2018-09-04T20:47:37.281Z,46367.36
2018-09-04T20:49:43.471Z,46362.52
2018-09-04T20:51:50.148Z,46362.52
2018-09-04T20:53:56.074Z,46353.82
2018-09-04T20:56:02.350Z,46352.85
2018-09-04T20:58:23.994Z,46345.11
2018-09-04T21:00:45.931Z,46349.94
2018-09-04T21:03:07.998Z,46352.85
2018-09-04T21:05:29.729Z,46331.55
2018-09-04T21:08:56.893Z,46342.20
2018-09-04T21:11:02.717Z,46364.46
2018-09-04T21:13:08.639Z,46351.88
2018-09-04T21:15:14.776Z,46354.79
2018-09-04T21:17:21.174Z,46363.49
2018-09-04T21:19:27.118Z,46341.23
2018-09-04T21:21:32.959Z,46361.56
2018-09-04T21:23:38.287Z,46339.30
2018-09-04T21:25:43.577Z,46341.23
2018-09-04T21:27:49.244Z,46359.62
2018-09-04T21:29:54.694Z,46337.36
2018-09-04T21:32:01.945Z,46354.79
2018-09-04T21:34:09.049Z,46348.01
2018-09-04T21:36:14.699Z,46359.62
2018-09-04T21:38:20.340Z,46332.52
2018-09-04T21:40:25.489Z,46342.20
2018-09-04T21:42:33.228Z,46355.75
2018-09-04T21:44:39.147Z,46353.82
2018-09-04T21:46:44.717Z,46331.55
2018-09-04T21:48:49.958Z,46347.04
2018-09-04T21:50:56.896Z,46329.62
2018-09-04T21:53:02.223Z,46347.04
2018-09-04T21:55:08.823Z,46369.30
2018-09-04T21:57:14.095Z,46345.11
2018-09-04T21:59:20.301Z,46318.97
2018-09-04T22:01:26.115Z,46359.62
2018-09-04T22:03:32.028Z,46348.01
2018-09-04T22:05:37.632Z,46341.23
2018-09-04T22:07:42.652Z,46354.79
2018-09-04T22:09:47.889Z,46329.62
2018-09-04T22:11:52.918Z,46363.49
2018-09-04T22:13:58.064Z,46336.39
2018-09-04T22:16:04.290Z,46346.07
2018-09-04T22:18:09.640Z,46345.11
2018-09-04T22:20:19.948Z,46355.75
2018-09-04T22:22:25.012Z,46344.14
2018-09-04T22:24:36.499Z,46347.04
2018-09-04T22:26:41.647Z,46351.88
2018-09-04T22:28:46.680Z,46337.36
2018-09-04T22:30:51.877Z,46334.46
2018-09-04T22:32:57.562Z,46339.30
2018-09-04T22:35:02.667Z,46347.04
2018-09-04T22:37:07.876Z,46342.20
2018-09-04T22:39:12.903Z,46349.94
2018-09-04T22:41:18.152Z,46341.23
2018-09-04T22:43:23.305Z,46335.43
2018-09-04T22:45:28.371Z,46353.82
2018-09-04T22:47:33.774Z,46348.98
2018-09-04T22:49:43.365Z,46344.14
2018-09-04T22:51:48.356Z,46337.36
2018-09-04T22:53:53.332Z,46333.49
2018-09-04T22:55:58.277Z,46335.43
2018-09-04T22:58:08.645Z,46331.55
2018-09-04T23:00:14.821Z,46355.75
2018-09-04T23:02:19.823Z,46325.75
2018-09-04T23:04:24.627Z,46340.27
2018-09-04T23:06:29.629Z,46347.04
2018-09-04T23:08:34.514Z,46334.46
2018-09-04T23:10:39.383Z,46339.30
2018-09-04T23:12:50.522Z,46351.88
2018-09-04T23:14:55.879Z,46357.69
2018-09-04T23:17:00.855Z,46329.62
2018-09-04T23:19:05.887Z,46348.98
2018-09-04T23:21:11.091Z,46350.91
2018-09-04T23:23:16.151Z,46331.55
2018-09-04T23:25:21.186Z,46343.17
2018-09-04T23:27:26.267Z,46340.27
2018-09-04T23:29:31.313Z,46358.65
2018-09-04T23:31:36.475Z,46348.01
2018-09-04T23:33:41.469Z,46339.30
2018-09-04T23:35:46.323Z,46336.39
2018-09-04T23:37:51.304Z,46324.78
2018-09-04T23:39:56.228Z,46350.91
2018-09-04T23:42:01.247Z,46345.11
2018-09-04T23:44:06.340Z,46335.43
2018-09-04T23:46:11.312Z,46348.01
2018-09-04T23:48:16.195Z,46341.23
2018-09-04T23:50:21.121Z,46335.43
2018-09-04T23:52:26.111Z,46345.11
2018-09-04T23:54:31.176Z,46339.30
2018-09-04T23:56:36.254Z,46348.01
2018-09-04T23:58:41.316Z,46321.88
